Allwood, New Jersey
Current Conditions -  °F | °C
As of 9:51 AM on Friday 24 Oct 2014 (Local Time) from KTEB Reporting Station
Overcast Overcast  
Wind Chill: 54°   Ceiling: 3700
Heat Index: 54°   Visibility: 10mi
Dew Point: 42°   Wind: 13mph
Humidity: 64%   Direction: 340°NNW
Pressure: 29.82"   Gusts: 20mph
Location:  40.8469°N, 74.1593°W
Report Text: KTEB 241351Z 34011G17KT 10SM OVC037 12/06 A2982 RMK AO2 SLP097 T01220056
Loading
Personal Weather Stations






























Interactive Weather Map New forecast layout! Learn more

10-Day Weather Forecast

Advertisements
Track Severe Weather on mobile